Accueil
METAR-TAF:

METAR-TAF

Aéroports :

Aéroport d'Avignon-Provence

Avignon, France

latitude: 43-54-26N, longitude: 004-54-07E, altitude: 38 m

Observation

Le bulletin a été fait il y a 20 minutes, à 04:00 UTC
Vent 2 kt de sud
Température 18°C
Humidité 88%
Pression 1011 hPa
Visibilité 10 km ou plus
pas de nuages en-dessous de 1500 mètres et pas de cumulonimbus.

METAR: LFMV 060400Z AUTO 17002KT CAVOK 18/16 Q1011 NOSIG

Heure: 06:20 (04:20 UTC)

Prévision

Le bulletin a été fait il y a 2 heures et 20 minutes, à 02:00 UTC
Prévision valable du 06 à 03 UTC au 07 à 03 UTC
Vent 3 kt de direction variable
Visibilité 10 km ou plus
pas de nuages en-dessous de 1500 mètres et pas de cumulonimbus.
Temporairement
du 06 à 16 UTC au 06 à 21 UTC
Vent 10 kt de sud/sud-ouest

TAF: LFMV 060200Z 0603/0703 VRB03KT CAVOK TEMPO 0616/0621 21010KT

Observations et prévisions météorologiques de plus de 4000 aéroports (messages METAR et TAF).

Les stations disponibles sont représentées par des disques jaunes et rouges sur la carte.

Passer la souris dessus pour voir le nom de la station.

Cliquer dessus pour voir les observations et prévisions météorologiques.

Pour changer de carte: cliquez sur les boutons verts avec une croix noire pour zoomer, sur le bouton vert avec un tiret pour effectuer un zoom arrière, ou sur les flèches vertes pour les cartes adjacentes.


METAR-TAF: